Skelton, AK

12:16 AM AKDT on August 01, 2014 (GMT -0800)
AKDOT Glenn Highway @ Gunsight Mountain MP 11 (MGMTA2) Elev 3234 ft | 61.83 °N, 147.41 °W | Change Station

Current weather conditions updated 46 minutes ago

Overcast
Overcast
50 °F
Feels Like 48 °F
N
5
Wind Variable Wind from West
Gusts 11.0 mph

Today is forecast to be nearly the same temperature as yesterday.

Today
High -- | Low -- °F
--% Chance of Precip.
Yesterday
High -- | Low -- °F
Precip. -- in
5:15 AM 10:32 PM
Waxing Crescent, 24% visible
Pressure 30.21 in
Visibility 10.0 miles
Clouds Overcast 9500 ft
Windchill 48 °F
Dew Point 47 °F
Humidity 90%
Rainfall 0.00 in
Snow Depth Not available.
UV 0 out of 12
Pollen Not available.
Air Quality Not available.
Flu Activity Not available.
METAR PAGK 010753Z AUTO 00000KT 10SM OVC095 14/09 A3021 RMK AO2 SLP228 T01440089 TSNO $

More Conditions Fewer Conditions

Pressure 30.21 in
Visibility 10.0 miles
Clouds Overcast 9500 ft
Windchill 48 °F
Dew Point 47 °F
Humidity 90%
Rainfall 0.00 in
Snow Depth Not available.
UV 0 out of 12
Pollen Not available.
Air Quality Not available.
Flu Activity Not available.
METAR PAGK 010753Z AUTO 00000KT 10SM OVC095 14/09 A3021 RMK AO2 SLP228 T01440089 TSNO $

More Conditions Fewer Conditions

10-Day Weather Forecast

Almanac

Astronomy

Aug. 01, 2014 Rise Set
Actual Time 5:15 AM AKDT 10:32 PM AKDT
Civil Twilight 4:05 AM AKDT 11:40 PM AKDT
Nautical Twilight 2:27 AM AKDT 1:22 AM AKDT
Astronomical Twilight Sun does not rise Sun does not rise
Moon 12:48 PM AKDT 11:17 PM AKDT
Length of Visible Light 19h 35m
Length of Day
17h 16m
Tomorrow will be 5m 31s shorter.
Waxing Crescent, 24% of the Moon is Illuminated
Today
Waxing Crescent
Aug 3
First Quarter
Aug 10
Full
Aug 17
Last Quarter
Aug 25
New

Community

WunderPhotos

Upload Photos

1,739,522 photos uploaded!

Nearby

Snow Depth

Station Depth Elevation
Moraine 0 in 2100 ft
Upper Tsaina River 0 in 1750 ft
Susitna Valley High 2 in 375 ft
Indian Pass 2 in 2300 ft
Point Mackenzie 1 in 200 ft

Earthquake Activity

City Distance Mag. Time & Date
No recent earthquake activity has been reported nearby.
Minimum magnitude displayed is 2.5.

Coastal Water Temperatures

Place Temperature
No Stations Reporting

Nearby Weather Stations

Station Location Temp. Windchill Dew Point Humidity Wind Precip. Elev Updated Type
AKDOT Glenn Highway @ Gunsight Mountain , Tatitlek, AK 50 °F 48 °F 47 °F 90% West  at  5 mph 0.00 in / hr 3234 ft 11:30 PM AKDT MADIS

Show More Stations Show Fewer Stations